sensor_id;sensor_type;location;lat;lon;timestamp;P1;durP1;ratioP1;P2;durP2;ratioP2
8074;SDS011;4080;42.676;23.372;2022-07-29T00:00:04;10.13;;;9.23;;
8074;SDS011;4080;42.676;23.372;2022-07-29T00:02:32;12.10;;;11.00;;
8074;SDS011;4080;42.676;23.372;2022-07-29T00:04:59;10.33;;;9.43;;
8074;SDS011;4080;42.676;23.372;2022-07-29T00:07:27;11.97;;;10.73;;
8074;SDS011;4080;42.676;23.372;2022-07-29T00:09:54;13.13;;;11.00;;
8074;SDS011;4080;42.676;23.372;2022-07-29T00:12:21;11.00;;;10.00;;
8074;SDS011;4080;42.676;23.372;2022-07-29T00:14:49;11.37;;;9.47;;
8074;SDS011;4080;42.676;23.372;2022-07-29T00:17:16;9.77;;;8.83;;
8074;SDS011;4080;42.676;23.372;2022-07-29T00:19:43;9.57;;;8.73;;
8074;SDS011;4080;42.676;23.372;2022-07-29T00:22:10;10.50;;;9.47;;
8074;SDS011;4080;42.676;23.372;2022-07-29T00:24:38;9.00;;;8.20;;
8074;SDS011;4080;42.676;23.372;2022-07-29T00:27:05;10.40;;;9.33;;
8074;SDS011;4080;42.676;23.372;2022-07-29T00:29:32;10.27;;;9.27;;
8074;SDS011;4080;42.676;23.372;2022-07-29T00:31:59;10.87;;;9.77;;
8074;SDS011;4080;42.676;23.372;2022-07-29T00:34:26;10.40;;;9.17;;
8074;SDS011;4080;42.676;23.372;2022-07-29T00:37:10;10.40;;;9.50;;
8074;SDS011;4080;42.676;23.372;2022-07-29T00:39:38;9.90;;;8.60;;
8074;SDS011;4080;42.676;23.372;2022-07-29T00:42:05;9.27;;;8.57;;
8074;SDS011;4080;42.676;23.372;2022-07-29T00:44:35;9.53;;;8.37;;
8074;SDS011;4080;42.676;23.372;2022-07-29T00:47:03;9.20;;;8.40;;
8074;SDS011;4080;42.676;23.372;2022-07-29T00:49:30;10.10;;;9.10;;
8074;SDS011;4080;42.676;23.372;2022-07-29T00:51:57;8.63;;;7.87;;
8074;SDS011;4080;42.676;23.372;2022-07-29T00:54:23;9.47;;;8.57;;
8074;SDS011;4080;42.676;23.372;2022-07-29T00:56:53;9.60;;;8.73;;
8074;SDS011;4080;42.676;23.372;2022-07-29T00:59:20;9.07;;;8.10;;
8074;SDS011;4080;42.676;23.372;2022-07-29T01:01:46;8.60;;;7.80;;
8074;SDS011;4080;42.676;23.372;2022-07-29T01:04:13;10.07;;;8.63;;
8074;SDS011;4080;42.676;23.372;2022-07-29T01:06:40;9.37;;;8.47;;
8074;SDS011;4080;42.676;23.372;2022-07-29T01:09:08;9.80;;;8.60;;
8074;SDS011;4080;42.676;23.372;2022-07-29T01:11:36;10.53;;;9.63;;
8074;SDS011;4080;42.676;23.372;2022-07-29T01:14:05;11.33;;;10.23;;
8074;SDS011;4080;42.676;23.372;2022-07-29T01:16:37;11.23;;;10.07;;
8074;SDS011;4080;42.676;23.372;2022-07-29T01:19:12;9.77;;;8.57;;
8074;SDS011;4080;42.676;23.372;2022-07-29T01:21:50;9.90;;;9.07;;
8074;SDS011;4080;42.676;23.372;2022-07-29T01:24:30;11.07;;;9.33;;
8074;SDS011;4080;42.676;23.372;2022-07-29T01:27:09;9.83;;;8.83;;
8074;SDS011;4080;42.676;23.372;2022-07-29T01:29:57;11.40;;;10.27;;
8074;SDS011;4080;42.676;23.372;2022-07-29T01:32:27;9.90;;;8.60;;
8074;SDS011;4080;42.676;23.372;2022-07-29T01:34:56;9.97;;;8.97;;
8074;SDS011;4080;42.676;23.372;2022-07-29T01:37:29;12.87;;;10.50;;
8074;SDS011;4080;42.676;23.372;2022-07-29T01:40:04;11.90;;;10.90;;
8074;SDS011;4080;42.676;23.372;2022-07-29T01:42:38;12.00;;;10.30;;
8074;SDS011;4080;42.676;23.372;2022-07-29T01:45:12;14.17;;;12.73;;
8074;SDS011;4080;42.676;23.372;2022-07-29T01:47:47;13.37;;;12.07;;
8074;SDS011;4080;42.676;23.372;2022-07-29T01:50:19;15.07;;;12.73;;
8074;SDS011;4080;42.676;23.372;2022-07-29T01:52:54;14.20;;;12.90;;
8074;SDS011;4080;42.676;23.372;2022-07-29T01:55:24;14.20;;;12.77;;
8074;SDS011;4080;42.676;23.372;2022-07-29T01:57:56;15.10;;;13.63;;
8074;SDS011;4080;42.676;23.372;2022-07-29T02:00:26;14.43;;;12.30;;
8074;SDS011;4080;42.676;23.372;2022-07-29T02:02:56;14.67;;;13.17;;
8074;SDS011;4080;42.676;23.372;2022-07-29T02:05:25;16.70;;;13.27;;
8074;SDS011;4080;42.676;23.372;2022-07-29T02:07:53;18.73;;;13.83;;
8074;SDS011;4080;42.676;23.372;2022-07-29T02:10:22;15.23;;;13.87;;
8074;SDS011;4080;42.676;23.372;2022-07-29T02:12:51;17.63;;;14.27;;
8074;SDS011;4080;42.676;23.372;2022-07-29T02:15:21;14.20;;;12.70;;
8074;SDS011;4080;42.676;23.372;2022-07-29T02:17:53;12.97;;;11.67;;
8074;SDS011;4080;42.676;23.372;2022-07-29T02:20:22;14.00;;;12.40;;
8074;SDS011;4080;42.676;23.372;2022-07-29T02:22:51;16.10;;;11.23;;
8074;SDS011;4080;42.676;23.372;2022-07-29T02:25:20;14.50;;;13.00;;
8074;SDS011;4080;42.676;23.372;2022-07-29T02:27:48;15.13;;;13.53;;
8074;SDS011;4080;42.676;23.372;2022-07-29T02:30:17;17.10;;;13.50;;
8074;SDS011;4080;42.676;23.372;2022-07-29T02:32:45;12.57;;;11.43;;
8074;SDS011;4080;42.676;23.372;2022-07-29T02:35:15;13.67;;;11.73;;
8074;SDS011;4080;42.676;23.372;2022-07-29T02:37:43;13.87;;;12.43;;
8074;SDS011;4080;42.676;23.372;2022-07-29T02:40:32;13.93;;;12.00;;
8074;SDS011;4080;42.676;23.372;2022-07-29T02:43:00;14.37;;;11.20;;
8074;SDS011;4080;42.676;23.372;2022-07-29T02:45:28;14.03;;;9.60;;
8074;SDS011;4080;42.676;23.372;2022-07-29T02:47:56;9.53;;;8.47;;
8074;SDS011;4080;42.676;23.372;2022-07-29T02:50:27;9.70;;;8.63;;
8074;SDS011;4080;42.676;23.372;2022-07-29T02:53:00;10.13;;;8.43;;
8074;SDS011;4080;42.676;23.372;2022-07-29T02:55:31;11.40;;;10.00;;
8074;SDS011;4080;42.676;23.372;2022-07-29T02:58:03;11.93;;;10.73;;
8074;SDS011;4080;42.676;23.372;2022-07-29T03:00:41;13.20;;;11.50;;
8074;SDS011;4080;42.676;23.372;2022-07-29T03:03:12;12.50;;;11.17;;
8074;SDS011;4080;42.676;23.372;2022-07-29T03:05:42;12.90;;;10.67;;
8074;SDS011;4080;42.676;23.372;2022-07-29T03:08:10;11.90;;;10.73;;
8074;SDS011;4080;42.676;23.372;2022-07-29T03:10:38;13.57;;;12.27;;
8074;SDS011;4080;42.676;23.372;2022-07-29T03:13:09;13.90;;;12.50;;
8074;SDS011;4080;42.676;23.372;2022-07-29T03:15:37;14.70;;;13.20;;
8074;SDS011;4080;42.676;23.372;2022-07-29T03:18:05;14.53;;;13.03;;
8074;SDS011;4080;42.676;23.372;2022-07-29T03:20:33;14.33;;;12.93;;
8074;SDS011;4080;42.676;23.372;2022-07-29T03:23:01;17.33;;;13.07;;
8074;SDS011;4080;42.676;23.372;2022-07-29T03:25:29;14.90;;;13.20;;
8074;SDS011;4080;42.676;23.372;2022-07-29T03:27:56;16.17;;;13.90;;
8074;SDS011;4080;42.676;23.372;2022-07-29T03:30:23;14.27;;;12.87;;
8074;SDS011;4080;42.676;23.372;2022-07-29T03:32:50;15.63;;;13.73;;
8074;SDS011;4080;42.676;23.372;2022-07-29T03:35:17;16.10;;;13.83;;
8074;SDS011;4080;42.676;23.372;2022-07-29T03:37:44;14.27;;;12.87;;
8074;SDS011;4080;42.676;23.372;2022-07-29T03:40:14;16.47;;;12.63;;
8074;SDS011;4080;42.676;23.372;2022-07-29T03:42:46;14.13;;;12.83;;
8074;SDS011;4080;42.676;23.372;2022-07-29T03:45:17;13.50;;;12.03;;
8074;SDS011;4080;42.676;23.372;2022-07-29T03:47:47;13.40;;;12.17;;
8074;SDS011;4080;42.676;23.372;2022-07-29T03:50:16;14.00;;;11.77;;
8074;SDS011;4080;42.676;23.372;2022-07-29T03:52:46;13.40;;;11.70;;
8074;SDS011;4080;42.676;23.372;2022-07-29T03:55:14;14.30;;;12.07;;
8074;SDS011;4080;42.676;23.372;2022-07-29T03:57:43;12.67;;;11.37;;
8074;SDS011;4080;42.676;23.372;2022-07-29T04:00:11;13.57;;;11.73;;
8074;SDS011;4080;42.676;23.372;2022-07-29T04:02:40;15.90;;;13.83;;
8074;SDS011;4080;42.676;23.372;2022-07-29T04:05:11;15.40;;;13.43;;
8074;SDS011;4080;42.676;23.372;2022-07-29T04:07:39;18.60;;;14.93;;
8074;SDS011;4080;42.676;23.372;2022-07-29T04:10:06;15.67;;;13.40;;
8074;SDS011;4080;42.676;23.372;2022-07-29T04:12:34;15.40;;;12.90;;
8074;SDS011;4080;42.676;23.372;2022-07-29T04:15:02;14.33;;;12.83;;
8074;SDS011;4080;42.676;23.372;2022-07-29T04:17:29;14.30;;;11.93;;
8074;SDS011;4080;42.676;23.372;2022-07-29T04:19:56;13.17;;;11.87;;
8074;SDS011;4080;42.676;23.372;2022-07-29T04:22:22;13.87;;;11.87;;
8074;SDS011;4080;42.676;23.372;2022-07-29T04:24:49;14.20;;;11.07;;
8074;SDS011;4080;42.676;23.372;2022-07-29T04:27:16;11.83;;;10.60;;
8074;SDS011;4080;42.676;23.372;2022-07-29T04:29:44;12.00;;;10.10;;
8074;SDS011;4080;42.676;23.372;2022-07-29T04:32:11;10.87;;;9.77;;
8074;SDS011;4080;42.676;23.372;2022-07-29T04:34:38;12.57;;;9.77;;
8074;SDS011;4080;42.676;23.372;2022-07-29T04:37:05;11.00;;;9.93;;
8074;SDS011;4080;42.676;23.372;2022-07-29T04:39:31;12.57;;;9.50;;
8074;SDS011;4080;42.676;23.372;2022-07-29T04:41:58;14.00;;;10.93;;
8074;SDS011;4080;42.676;23.372;2022-07-29T04:44:25;10.93;;;9.80;;
8074;SDS011;4080;42.676;23.372;2022-07-29T04:46:54;12.63;;;10.63;;
8074;SDS011;4080;42.676;23.372;2022-07-29T04:49:21;15.20;;;10.67;;
8074;SDS011;4080;42.676;23.372;2022-07-29T04:51:48;15.63;;;10.83;;
8074;SDS011;4080;42.676;23.372;2022-07-29T04:54:15;11.17;;;10.07;;
8074;SDS011;4080;42.676;23.372;2022-07-29T04:56:42;11.83;;;10.63;;
8074;SDS011;4080;42.676;23.372;2022-07-29T04:59:08;13.13;;;10.63;;
8074;SDS011;4080;42.676;23.372;2022-07-29T05:01:35;16.37;;;11.27;;
8074;SDS011;4080;42.676;23.372;2022-07-29T05:04:03;12.67;;;10.63;;
8074;SDS011;4080;42.676;23.372;2022-07-29T05:06:30;10.80;;;9.80;;
8074;SDS011;4080;42.676;23.372;2022-07-29T05:08:57;13.50;;;10.63;;
8074;SDS011;4080;42.676;23.372;2022-07-29T05:11:24;11.47;;;10.27;;
8074;SDS011;4080;42.676;23.372;2022-07-29T05:13:50;12.67;;;9.93;;
8074;SDS011;4080;42.676;23.372;2022-07-29T05:16:17;11.47;;;9.67;;
8074;SDS011;4080;42.676;23.372;2022-07-29T05:18:44;18.13;;;10.17;;
8074;SDS011;4080;42.676;23.372;2022-07-29T05:21:13;12.87;;;9.87;;
8074;SDS011;4080;42.676;23.372;2022-07-29T05:23:39;10.83;;;9.07;;
8074;SDS011;4080;42.676;23.372;2022-07-29T05:26:06;11.20;;;8.50;;
8074;SDS011;4080;42.676;23.372;2022-07-29T05:28:33;12.30;;;9.40;;
8074;SDS011;4080;42.676;23.372;2022-07-29T05:31:00;9.27;;;8.47;;
8074;SDS011;4080;42.676;23.372;2022-07-29T05:33:27;8.80;;;7.90;;
8074;SDS011;4080;42.676;23.372;2022-07-29T05:35:54;10.23;;;8.33;;
8074;SDS011;4080;42.676;23.372;2022-07-29T05:38:22;10.70;;;7.77;;
8074;SDS011;4080;42.676;23.372;2022-07-29T05:40:48;7.73;;;6.97;;
8074;SDS011;4080;42.676;23.372;2022-07-29T05:43:15;7.97;;;7.00;;
8074;SDS011;4080;42.676;23.372;2022-07-29T05:45:42;8.20;;;6.77;;
8074;SDS011;4080;42.676;23.372;2022-07-29T05:48:09;7.70;;;7.00;;
8074;SDS011;4080;42.676;23.372;2022-07-29T05:50:35;12.53;;;6.67;;
8074;SDS011;4080;42.676;23.372;2022-07-29T05:53:02;8.70;;;7.30;;
8074;SDS011;4080;42.676;23.372;2022-07-29T05:55:31;10.50;;;6.73;;
8074;SDS011;4080;42.676;23.372;2022-07-29T05:57:57;9.53;;;6.80;;
8074;SDS011;4080;42.676;23.372;2022-07-29T06:00:24;7.47;;;6.67;;
8074;SDS011;4080;42.676;23.372;2022-07-29T06:02:51;7.73;;;6.97;;
8074;SDS011;4080;42.676;23.372;2022-07-29T06:05:18;8.00;;;6.43;;
8074;SDS011;4080;42.676;23.372;2022-07-29T06:07:45;9.23;;;7.40;;
8074;SDS011;4080;42.676;23.372;2022-07-29T06:10:12;8.50;;;7.23;;
8074;SDS011;4080;42.676;23.372;2022-07-29T06:12:40;7.93;;;6.73;;
8074;SDS011;4080;42.676;23.372;2022-07-29T06:15:07;8.33;;;6.80;;
8074;SDS011;4080;42.676;23.372;2022-07-29T06:17:35;8.63;;;7.27;;
8074;SDS011;4080;42.676;23.372;2022-07-29T06:20:02;11.17;;;7.20;;
8074;SDS011;4080;42.676;23.372;2022-07-29T06:22:29;8.57;;;6.63;;
8074;SDS011;4080;42.676;23.372;2022-07-29T06:24:56;7.60;;;6.90;;
8074;SDS011;4080;42.676;23.372;2022-07-29T06:27:23;7.97;;;6.67;;
8074;SDS011;4080;42.676;23.372;2022-07-29T06:29:51;11.30;;;7.10;;
8074;SDS011;4080;42.676;23.372;2022-07-29T06:32:18;12.03;;;7.10;;
8074;SDS011;4080;42.676;23.372;2022-07-29T06:34:44;8.83;;;7.37;;
8074;SDS011;4080;42.676;23.372;2022-07-29T06:37:11;7.57;;;6.43;;
8074;SDS011;4080;42.676;23.372;2022-07-29T06:39:39;8.57;;;6.40;;
8074;SDS011;4080;42.676;23.372;2022-07-29T06:42:06;11.07;;;6.33;;
8074;SDS011;4080;42.676;23.372;2022-07-29T06:44:33;6.50;;;6.00;;
8074;SDS011;4080;42.676;23.372;2022-07-29T06:47:01;6.70;;;6.10;;
8074;SDS011;4080;42.676;23.372;2022-07-29T06:49:28;10.03;;;6.30;;
8074;SDS011;4080;42.676;23.372;2022-07-29T06:51:55;9.33;;;6.37;;
8074;SDS011;4080;42.676;23.372;2022-07-29T06:54:22;6.60;;;5.90;;
8074;SDS011;4080;42.676;23.372;2022-07-29T06:56:49;9.73;;;6.67;;
8074;SDS011;4080;42.676;23.372;2022-07-29T06:59:15;8.47;;;6.33;;
8074;SDS011;4080;42.676;23.372;2022-07-29T07:01:42;10.63;;;5.90;;
8074;SDS011;4080;42.676;23.372;2022-07-29T07:04:11;6.27;;;5.33;;
8074;SDS011;4080;42.676;23.372;2022-07-29T07:06:38;5.63;;;5.10;;
8074;SDS011;4080;42.676;23.372;2022-07-29T07:09:05;5.70;;;5.20;;
8074;SDS011;4080;42.676;23.372;2022-07-29T07:11:32;5.20;;;4.80;;
8074;SDS011;4080;42.676;23.372;2022-07-29T07:13:59;5.83;;;5.23;;
8074;SDS011;4080;42.676;23.372;2022-07-29T07:16:26;6.97;;;5.00;;
8074;SDS011;4080;42.676;23.372;2022-07-29T07:18:53;6.57;;;5.10;;
8074;SDS011;4080;42.676;23.372;2022-07-29T07:21:21;5.67;;;4.80;;
8074;SDS011;4080;42.676;23.372;2022-07-29T07:23:47;5.50;;;5.10;;
8074;SDS011;4080;42.676;23.372;2022-07-29T07:26:14;7.00;;;6.40;;
8074;SDS011;4080;42.676;23.372;2022-07-29T07:28:41;6.40;;;4.80;;
8074;SDS011;4080;42.676;23.372;2022-07-29T07:31:08;5.77;;;4.97;;
8074;SDS011;4080;42.676;23.372;2022-07-29T07:33:35;5.17;;;4.77;;
8074;SDS011;4080;42.676;23.372;2022-07-29T07:36:02;5.70;;;5.10;;
8074;SDS011;4080;42.676;23.372;2022-07-29T07:38:30;5.77;;;5.13;;
8074;SDS011;4080;42.676;23.372;2022-07-29T07:40:58;4.97;;;4.63;;
8074;SDS011;4080;42.676;23.372;2022-07-29T07:43:25;5.43;;;4.33;;
8074;SDS011;4080;42.676;23.372;2022-07-29T07:45:52;5.43;;;4.63;;
8074;SDS011;4080;42.676;23.372;2022-07-29T07:48:18;6.80;;;5.07;;
8074;SDS011;4080;42.676;23.372;2022-07-29T07:50:45;7.07;;;4.70;;
8074;SDS011;4080;42.676;23.372;2022-07-29T07:53:14;6.33;;;4.90;;
8074;SDS011;4080;42.676;23.372;2022-07-29T07:55:42;6.30;;;4.73;;
8074;SDS011;4080;42.676;23.372;2022-07-29T07:58:09;4.80;;;4.40;;
8074;SDS011;4080;42.676;23.372;2022-07-29T08:00:36;4.77;;;4.37;;
8074;SDS011;4080;42.676;23.372;2022-07-29T08:03:03;6.40;;;4.60;;
8074;SDS011;4080;42.676;23.372;2022-07-29T08:05:30;5.40;;;4.37;;
8074;SDS011;4080;42.676;23.372;2022-07-29T08:07:57;5.40;;;4.23;;
8074;SDS011;4080;42.676;23.372;2022-07-29T08:10:24;4.53;;;4.23;;
8074;SDS011;4080;42.676;23.372;2022-07-29T08:13:10;5.73;;;4.10;;
8074;SDS011;4080;42.676;23.372;2022-07-29T08:15:38;4.20;;;3.90;;
8074;SDS011;4080;42.676;23.372;2022-07-29T08:18:06;4.93;;;4.07;;
8074;SDS011;4080;42.676;23.372;2022-07-29T08:20:33;4.90;;;4.20;;
8074;SDS011;4080;42.676;23.372;2022-07-29T08:23:00;5.17;;;4.10;;
8074;SDS011;4080;42.676;23.372;2022-07-29T08:25:28;4.30;;;3.90;;
8074;SDS011;4080;42.676;23.372;2022-07-29T08:27:54;5.07;;;4.30;;
8074;SDS011;4080;42.676;23.372;2022-07-29T08:30:23;4.57;;;4.17;;
8074;SDS011;4080;42.676;23.372;2022-07-29T08:32:49;4.40;;;4.00;;
8074;SDS011;4080;42.676;23.372;2022-07-29T08:35:18;4.40;;;4.10;;
8074;SDS011;4080;42.676;23.372;2022-07-29T08:37:45;4.00;;;3.60;;
8074;SDS011;4080;42.676;23.372;2022-07-29T08:40:12;7.77;;;4.00;;
8074;SDS011;4080;42.676;23.372;2022-07-29T08:42:40;3.90;;;3.60;;
8074;SDS011;4080;42.676;23.372;2022-07-29T08:45:07;3.90;;;3.60;;
8074;SDS011;4080;42.676;23.372;2022-07-29T08:47:37;4.10;;;3.70;;
8074;SDS011;4080;42.676;23.372;2022-07-29T08:50:05;4.67;;;4.27;;
8074;SDS011;4080;42.676;23.372;2022-07-29T08:52:35;5.27;;;4.07;;
8074;SDS011;4080;42.676;23.372;2022-07-29T08:55:03;6.30;;;4.30;;
8074;SDS011;4080;42.676;23.372;2022-07-29T08:57:31;5.50;;;4.00;;
8074;SDS011;4080;42.676;23.372;2022-07-29T09:00:00;4.30;;;3.83;;
8074;SDS011;4080;42.676;23.372;2022-07-29T09:02:28;4.00;;;3.70;;
8074;SDS011;4080;42.676;23.372;2022-07-29T09:05:03;4.83;;;3.47;;
8074;SDS011;4080;42.676;23.372;2022-07-29T09:07:31;5.10;;;4.40;;
8074;SDS011;4080;42.676;23.372;2022-07-29T09:09:58;6.47;;;5.23;;
8074;SDS011;4080;42.676;23.372;2022-07-29T09:12:25;4.30;;;3.90;;
8074;SDS011;4080;42.676;23.372;2022-07-29T09:14:52;4.30;;;3.70;;
8074;SDS011;4080;42.676;23.372;2022-07-29T09:17:32;4.70;;;4.20;;
8074;SDS011;4080;42.676;23.372;2022-07-29T09:20:11;5.17;;;4.30;;
8074;SDS011;4080;42.676;23.372;2022-07-29T09:22:39;5.27;;;4.00;;
8074;SDS011;4080;42.676;23.372;2022-07-29T09:25:06;5.10;;;4.00;;
8074;SDS011;4080;42.676;23.372;2022-07-29T09:27:33;4.07;;;3.67;;
8074;SDS011;4080;42.676;23.372;2022-07-29T09:30:02;4.93;;;4.40;;
8074;SDS011;4080;42.676;23.372;2022-07-29T09:32:30;5.47;;;4.50;;
8074;SDS011;4080;42.676;23.372;2022-07-29T09:35:18;4.70;;;4.30;;
8074;SDS011;4080;42.676;23.372;2022-07-29T09:37:47;6.00;;;4.50;;
8074;SDS011;4080;42.676;23.372;2022-07-29T09:40:14;5.43;;;4.47;;
8074;SDS011;4080;42.676;23.372;2022-07-29T09:42:44;4.67;;;4.20;;
8074;SDS011;4080;42.676;23.372;2022-07-29T09:45:12;4.73;;;4.33;;
8074;SDS011;4080;42.676;23.372;2022-07-29T09:47:51;3.83;;;3.53;;
8074;SDS011;4080;42.676;23.372;2022-07-29T09:50:20;4.53;;;3.70;;
8074;SDS011;4080;42.676;23.372;2022-07-29T09:52:49;4.27;;;3.87;;
8074;SDS011;4080;42.676;23.372;2022-07-29T09:55:17;4.10;;;3.80;;
8074;SDS011;4080;42.676;23.372;2022-07-29T09:57:44;8.37;;;4.73;;
8074;SDS011;4080;42.676;23.372;2022-07-29T10:00:12;4.60;;;4.20;;
8074;SDS011;4080;42.676;23.372;2022-07-29T10:02:41;4.00;;;3.60;;
8074;SDS011;4080;42.676;23.372;2022-07-29T10:05:16;3.93;;;3.60;;
8074;SDS011;4080;42.676;23.372;2022-07-29T10:07:47;5.97;;;3.97;;
8074;SDS011;4080;42.676;23.372;2022-07-29T10:10:19;4.43;;;4.03;;
8074;SDS011;4080;42.676;23.372;2022-07-29T10:12:48;4.83;;;3.70;;
8074;SDS011;4080;42.676;23.372;2022-07-29T10:15:16;6.73;;;4.00;;
8074;SDS011;4080;42.676;23.372;2022-07-29T10:17:44;5.00;;;3.60;;
8074;SDS011;4080;42.676;23.372;2022-07-29T10:20:11;6.50;;;3.53;;
8074;SDS011;4080;42.676;23.372;2022-07-29T10:22:38;3.90;;;3.50;;
8074;SDS011;4080;42.676;23.372;2022-07-29T10:25:08;5.13;;;3.60;;
8074;SDS011;4080;42.676;23.372;2022-07-29T10:27:36;5.60;;;4.27;;
8074;SDS011;4080;42.676;23.372;2022-07-29T10:30:04;4.73;;;4.33;;
8074;SDS011;4080;42.676;23.372;2022-07-29T10:32:39;4.23;;;3.80;;
8074;SDS011;4080;42.676;23.372;2022-07-29T10:35:18;4.00;;;3.70;;
8074;SDS011;4080;42.676;23.372;2022-07-29T10:41:00;7.03;;;3.50;;
8074;SDS011;4080;42.676;23.372;2022-07-29T10:43:53;4.07;;;3.70;;
8074;SDS011;4080;42.676;23.372;2022-07-29T10:46:23;4.10;;;3.80;;
8074;SDS011;4080;42.676;23.372;2022-07-29T10:49:06;5.33;;;3.50;;
8074;SDS011;4080;42.676;23.372;2022-07-29T10:57:18;4.43;;;3.87;;
8074;SDS011;4080;42.676;23.372;2022-07-29T10:59:51;4.20;;;3.90;;
8074;SDS011;4080;42.676;23.372;2022-07-29T11:02:42;5.57;;;3.87;;
8074;SDS011;4080;42.676;23.372;2022-07-29T11:05:10;4.53;;;4.00;;
8074;SDS011;4080;42.676;23.372;2022-07-29T11:07:38;4.70;;;4.00;;
8074;SDS011;4080;42.676;23.372;2022-07-29T11:10:27;6.37;;;4.30;;
8074;SDS011;4080;42.676;23.372;2022-07-29T11:12:54;5.23;;;4.43;;
8074;SDS011;4080;42.676;23.372;2022-07-29T11:15:21;5.03;;;4.53;;
8074;SDS011;4080;42.676;23.372;2022-07-29T11:18:07;5.23;;;4.53;;
8074;SDS011;4080;42.676;23.372;2022-07-29T11:20:36;4.77;;;4.27;;
8074;SDS011;4080;42.676;23.372;2022-07-29T11:23:17;6.07;;;4.10;;
8074;SDS011;4080;42.676;23.372;2022-07-29T11:25:46;4.70;;;4.30;;
8074;SDS011;4080;42.676;23.372;2022-07-29T11:28:47;5.10;;;4.60;;
8074;SDS011;4080;42.676;23.372;2022-07-29T11:31:16;5.13;;;4.63;;
8074;SDS011;4080;42.676;23.372;2022-07-29T11:39:47;4.63;;;4.23;;
8074;SDS011;4080;42.676;23.372;2022-07-29T11:42:40;4.93;;;4.47;;
8074;SDS011;4080;42.676;23.372;2022-07-29T11:45:09;5.07;;;4.57;;
8074;SDS011;4080;42.676;23.372;2022-07-29T11:47:38;5.20;;;4.80;;
8074;SDS011;4080;42.676;23.372;2022-07-29T11:50:07;7.60;;;4.90;;
8074;SDS011;4080;42.676;23.372;2022-07-29T11:52:36;5.37;;;4.93;;
8074;SDS011;4080;42.676;23.372;2022-07-29T11:55:08;6.80;;;5.13;;
8074;SDS011;4080;42.676;23.372;2022-07-29T11:57:37;5.10;;;4.70;;
8074;SDS011;4080;42.676;23.372;2022-07-29T12:00:16;5.87;;;4.90;;
8074;SDS011;4080;42.676;23.372;2022-07-29T12:02:48;5.10;;;4.70;;
8074;SDS011;4080;42.676;23.372;2022-07-29T12:05:15;5.40;;;4.93;;
8074;SDS011;4080;42.676;23.372;2022-07-29T12:07:47;6.10;;;4.83;;
8074;SDS011;4080;42.676;23.372;2022-07-29T12:10:17;5.43;;;4.93;;
8074;SDS011;4080;42.676;23.372;2022-07-29T12:12:44;5.87;;;4.80;;
8074;SDS011;4080;42.676;23.372;2022-07-29T12:15:22;8.13;;;5.43;;
8074;SDS011;4080;42.676;23.372;2022-07-29T12:17:50;6.90;;;5.30;;
8074;SDS011;4080;42.676;23.372;2022-07-29T12:20:22;7.07;;;5.27;;
8074;SDS011;4080;42.676;23.372;2022-07-29T12:22:50;7.57;;;5.40;;
8074;SDS011;4080;42.676;23.372;2022-07-29T12:25:19;6.00;;;5.40;;
8074;SDS011;4080;42.676;23.372;2022-07-29T12:27:47;5.40;;;4.97;;
8074;SDS011;4080;42.676;23.372;2022-07-29T12:30:33;6.13;;;5.40;;
8074;SDS011;4080;42.676;23.372;2022-07-29T12:33:14;6.83;;;5.80;;
8074;SDS011;4080;42.676;23.372;2022-07-29T12:35:44;6.60;;;6.10;;
8074;SDS011;4080;42.676;23.372;2022-07-29T12:38:13;6.87;;;6.17;;
8074;SDS011;4080;42.676;23.372;2022-07-29T12:40:41;7.00;;;5.53;;
8074;SDS011;4080;42.676;23.372;2022-07-29T12:43:11;6.77;;;6.17;;
8074;SDS011;4080;42.676;23.372;2022-07-29T12:45:42;6.10;;;5.63;;
8074;SDS011;4080;42.676;23.372;2022-07-29T12:48:11;5.73;;;5.33;;
8074;SDS011;4080;42.676;23.372;2022-07-29T12:50:52;8.00;;;5.93;;
8074;SDS011;4080;42.676;23.372;2022-07-29T12:53:22;6.23;;;5.70;;
8074;SDS011;4080;42.676;23.372;2022-07-29T12:55:50;7.57;;;6.37;;
8074;SDS011;4080;42.676;23.372;2022-07-29T12:58:27;6.40;;;5.90;;
8074;SDS011;4080;42.676;23.372;2022-07-29T13:01:07;7.33;;;5.87;;
8074;SDS011;4080;42.676;23.372;2022-07-29T13:03:46;9.53;;;6.30;;
8074;SDS011;4080;42.676;23.372;2022-07-29T13:06:27;7.57;;;5.97;;
8074;SDS011;4080;42.676;23.372;2022-07-29T13:09:04;6.37;;;5.80;;
8074;SDS011;4080;42.676;23.372;2022-07-29T13:11:33;9.27;;;6.00;;
8074;SDS011;4080;42.676;23.372;2022-07-29T13:14:02;8.63;;;5.80;;
8074;SDS011;4080;42.676;23.372;2022-07-29T13:16:30;6.20;;;5.70;;
8074;SDS011;4080;42.676;23.372;2022-07-29T13:19:07;6.37;;;5.77;;
8074;SDS011;4080;42.676;23.372;2022-07-29T13:21:36;6.07;;;5.40;;
8074;SDS011;4080;42.676;23.372;2022-07-29T13:24:04;6.43;;;5.70;;
8074;SDS011;4080;42.676;23.372;2022-07-29T13:26:32;6.20;;;5.70;;
8074;SDS011;4080;42.676;23.372;2022-07-29T13:28:59;8.00;;;5.87;;
8074;SDS011;4080;42.676;23.372;2022-07-29T13:31:26;6.33;;;5.67;;
8074;SDS011;4080;42.676;23.372;2022-07-29T13:33:54;6.20;;;5.67;;
8074;SDS011;4080;42.676;23.372;2022-07-29T13:36:21;6.13;;;5.53;;
8074;SDS011;4080;42.676;23.372;2022-07-29T13:38:48;6.10;;;5.47;;
8074;SDS011;4080;42.676;23.372;2022-07-29T13:41:15;5.90;;;5.40;;
8074;SDS011;4080;42.676;23.372;2022-07-29T13:43:41;6.17;;;5.57;;
8074;SDS011;4080;42.676;23.372;2022-07-29T13:46:08;5.67;;;5.10;;
8074;SDS011;4080;42.676;23.372;2022-07-29T13:48:35;6.43;;;5.90;;
8074;SDS011;4080;42.676;23.372;2022-07-29T13:51:03;6.13;;;5.53;;
8074;SDS011;4080;42.676;23.372;2022-07-29T13:53:30;8.13;;;6.10;;
8074;SDS011;4080;42.676;23.372;2022-07-29T13:55:57;6.53;;;5.43;;
8074;SDS011;4080;42.676;23.372;2022-07-29T13:58:24;8.47;;;5.30;;
8074;SDS011;4080;42.676;23.372;2022-07-29T14:00:51;5.67;;;5.20;;
8074;SDS011;4080;42.676;23.372;2022-07-29T14:03:18;8.33;;;5.80;;
8074;SDS011;4080;42.676;23.372;2022-07-29T14:05:46;6.33;;;5.83;;
8074;SDS011;4080;42.676;23.372;2022-07-29T14:08:14;6.57;;;5.97;;
8074;SDS011;4080;42.676;23.372;2022-07-29T14:10:41;6.07;;;5.47;;
8074;SDS011;4080;42.676;23.372;2022-07-29T14:13:08;6.97;;;5.60;;
8074;SDS011;4080;42.676;23.372;2022-07-29T14:15:35;6.37;;;5.77;;
8074;SDS011;4080;42.676;23.372;2022-07-29T14:18:02;6.30;;;5.80;;
8074;SDS011;4080;42.676;23.372;2022-07-29T14:20:29;6.90;;;6.30;;
8074;SDS011;4080;42.676;23.372;2022-07-29T14:22:57;6.23;;;5.73;;
8074;SDS011;4080;42.676;23.372;2022-07-29T14:25:25;5.90;;;5.33;;
8074;SDS011;4080;42.676;23.372;2022-07-29T14:27:52;7.03;;;6.33;;
8074;SDS011;4080;42.676;23.372;2022-07-29T14:30:19;6.70;;;6.10;;
8074;SDS011;4080;42.676;23.372;2022-07-29T14:32:46;6.03;;;5.50;;
8074;SDS011;4080;42.676;23.372;2022-07-29T14:35:13;6.40;;;5.90;;
8074;SDS011;4080;42.676;23.372;2022-07-29T14:37:40;6.27;;;5.60;;
8074;SDS011;4080;42.676;23.372;2022-07-29T14:40:08;7.90;;;6.03;;
8074;SDS011;4080;42.676;23.372;2022-07-29T14:42:37;8.23;;;6.13;;
8074;SDS011;4080;42.676;23.372;2022-07-29T14:45:05;6.30;;;5.80;;
8074;SDS011;4080;42.676;23.372;2022-07-29T14:47:32;6.33;;;5.80;;
8074;SDS011;4080;42.676;23.372;2022-07-29T14:49:59;6.40;;;5.80;;
8074;SDS011;4080;42.676;23.372;2022-07-29T14:52:26;7.10;;;6.40;;
8074;SDS011;4080;42.676;23.372;2022-07-29T14:54:53;6.50;;;5.90;;
8074;SDS011;4080;42.676;23.372;2022-07-29T14:57:20;6.73;;;6.23;;
8074;SDS011;4080;42.676;23.372;2022-07-29T14:59:48;6.70;;;6.10;;
8074;SDS011;4080;42.676;23.372;2022-07-29T15:02:15;7.27;;;6.43;;
8074;SDS011;4080;42.676;23.372;2022-07-29T15:04:42;6.97;;;6.20;;
8074;SDS011;4080;42.676;23.372;2022-07-29T15:07:11;8.17;;;6.97;;
8074;SDS011;4080;42.676;23.372;2022-07-29T15:09:37;6.77;;;6.17;;
8074;SDS011;4080;42.676;23.372;2022-07-29T15:12:04;6.90;;;6.30;;
8074;SDS011;4080;42.676;23.372;2022-07-29T15:14:32;6.93;;;6.30;;
8074;SDS011;4080;42.676;23.372;2022-07-29T15:17:00;6.90;;;6.30;;
8074;SDS011;4080;42.676;23.372;2022-07-29T15:19:27;9.53;;;7.47;;